createdAt,value
2023-02-13T00:03:06.902Z,14.18
2023-02-13T00:05:34.853Z,13.93
2023-02-13T00:08:03.020Z,14.15
2023-02-13T00:10:30.872Z,14.68
2023-02-13T00:12:58.703Z,15.32
2023-02-13T00:15:28.150Z,13.50
2023-02-13T00:17:56.058Z,15.77
2023-02-13T00:20:24.050Z,14.70
2023-02-13T00:22:51.805Z,17.75
2023-02-13T00:25:19.789Z,17.42
2023-02-13T00:27:47.722Z,17.95
2023-02-13T00:30:16.662Z,17.67
2023-02-13T00:32:46.074Z,17.25
2023-02-13T00:35:14.130Z,18.40
2023-02-13T00:37:42.143Z,19.63
2023-02-13T00:40:10.799Z,19.13
2023-02-13T00:42:38.702Z,18.67
2023-02-13T00:45:07.521Z,17.05
2023-02-13T00:47:35.338Z,15.70
2023-02-13T00:50:04.915Z,16.20
2023-02-13T00:52:32.774Z,16.95
2023-02-13T00:55:01.079Z,19.10
2023-02-13T00:57:29.309Z,16.42
2023-02-13T00:59:57.358Z,17.30
2023-02-13T01:02:25.238Z,17.48
2023-02-13T01:04:53.271Z,16.23
2023-02-13T01:07:22.513Z,17.35
2023-02-13T01:09:50.405Z,17.77
2023-02-13T01:12:18.479Z,16.88
2023-02-13T01:14:46.450Z,16.90
2023-02-13T01:17:14.208Z,15.18
2023-02-13T01:19:42.579Z,14.18
2023-02-13T01:22:10.829Z,13.32
2023-02-13T01:24:40.138Z,13.05
2023-02-13T01:27:08.320Z,14.13
2023-02-13T01:29:37.130Z,13.98
2023-02-13T01:32:05.514Z,13.50
2023-02-13T01:34:35.282Z,13.50
2023-02-13T01:37:03.174Z,13.15
2023-02-13T01:39:31.283Z,12.18
2023-02-13T01:42:01.307Z,12.95
2023-02-13T01:44:54.106Z,12.77
2023-02-13T01:47:27.348Z,12.50
2023-02-13T01:50:08.373Z,13.18
2023-02-13T01:52:39.222Z,11.45
2023-02-13T01:55:08.340Z,12.82
2023-02-13T01:57:40.859Z,12.50
2023-02-13T02:00:11.447Z,13.05
2023-02-13T02:02:56.267Z,12.60
2023-02-13T02:05:30.042Z,12.18
2023-02-13T02:07:59.769Z,12.13
2023-02-13T02:10:28.043Z,13.25
2023-02-13T02:13:03.396Z,12.88
2023-02-13T02:15:32.403Z,11.65
2023-02-13T02:18:00.344Z,12.90
2023-02-13T02:20:54.246Z,13.38
2023-02-13T02:23:48.622Z,13.63
2023-02-13T02:26:49.052Z,11.25
2023-02-13T02:29:46.276Z,11.10
2023-02-13T02:32:38.437Z,11.48
2023-02-13T02:35:21.204Z,11.13
2023-02-13T02:38:03.366Z,10.30
2023-02-13T02:40:41.421Z,11.13
2023-02-13T02:43:26.154Z,10.25
2023-02-13T02:46:02.948Z,10.85
2023-02-13T02:48:54.428Z,9.77
2023-02-13T02:51:28.273Z,10.55
2023-02-13T02:54:25.629Z,9.85
2023-02-13T02:56:57.593Z,10.57
2023-02-13T02:59:47.395Z,9.80
2023-02-13T03:02:34.507Z,10.95
2023-02-13T03:05:22.395Z,10.68
2023-02-13T03:07:50.541Z,12.02
2023-02-13T03:10:46.369Z,11.43
2023-02-13T03:13:24.814Z,10.43
2023-02-13T03:16:13.343Z,10.38
2023-02-13T03:19:02.536Z,10.02
2023-02-13T03:22:00.374Z,9.43
2023-02-13T03:24:38.152Z,9.90
2023-02-13T03:27:12.106Z,10.95
2023-02-13T03:30:04.385Z,10.38
2023-02-13T03:32:40.666Z,10.90
2023-02-13T03:35:42.200Z,11.80
2023-02-13T03:38:17.919Z,13.50
2023-02-13T03:41:09.368Z,12.70
2023-02-13T03:43:46.390Z,13.85
2023-02-13T03:46:16.527Z,15.57
2023-02-13T03:51:38.515Z,12.93
2023-02-13T03:54:13.812Z,14.18
2023-02-13T03:57:00.794Z,13.73
2023-02-13T03:59:33.704Z,13.73
2023-02-13T04:02:09.532Z,13.25
2023-02-13T04:04:45.327Z,13.82
2023-02-13T04:07:29.769Z,13.25
2023-02-13T04:10:01.792Z,12.65
2023-02-13T04:12:39.388Z,13.88
2023-02-13T04:15:12.585Z,12.15
2023-02-13T04:17:44.764Z,13.57
2023-02-13T04:20:13.561Z,12.50
2023-02-13T04:22:45.020Z,12.98
2023-02-13T04:25:16.718Z,12.60
2023-02-13T04:27:44.653Z,12.18
2023-02-13T04:30:13.626Z,14.25
2023-02-13T04:32:41.565Z,12.25
2023-02-13T04:35:11.528Z,12.60
2023-02-13T04:37:39.506Z,11.23
2023-02-13T04:40:08.608Z,14.93
2023-02-13T04:42:37.934Z,13.88
2023-02-13T04:45:06.113Z,14.18
2023-02-13T04:47:33.982Z,14.95
2023-02-13T04:50:01.842Z,13.18
2023-02-13T04:52:29.678Z,13.45
2023-02-13T04:54:57.887Z,13.20
2023-02-13T04:57:26.061Z,20.23
2023-02-13T04:59:55.312Z,16.98
2023-02-13T05:02:23.116Z,15.32
2023-02-13T05:04:50.975Z,14.48
2023-02-13T05:07:18.917Z,14.63
2023-02-13T05:09:46.768Z,14.15
2023-02-13T05:12:15.834Z,12.95
2023-02-13T05:14:43.844Z,14.93
2023-02-13T05:17:12.996Z,17.98
2023-02-13T05:19:40.804Z,17.30
2023-02-13T05:22:27.645Z,15.45
2023-02-13T05:24:55.494Z,15.73
2023-02-13T05:27:23.363Z,16.15
2023-02-13T05:29:51.207Z,15.43
2023-02-13T05:32:20.630Z,13.93
2023-02-13T05:34:48.530Z,15.43
2023-02-13T05:37:16.226Z,16.65
2023-02-13T05:39:44.315Z,17.05
2023-02-13T05:42:12.094Z,15.02
2023-02-13T05:44:39.950Z,17.92
2023-02-13T05:47:07.774Z,16.70
2023-02-13T05:49:37.101Z,16.10
2023-02-13T05:52:05.262Z,10.93
2023-02-13T05:54:33.227Z,9.48
2023-02-13T05:57:01.157Z,8.77
2023-02-13T05:59:28.912Z,8.32
2023-02-13T06:01:56.743Z,7.65
2023-02-13T06:04:24.689Z,7.70
2023-02-13T06:06:53.954Z,7.95
2023-02-13T06:09:21.838Z,7.93
2023-02-13T06:11:49.756Z,8.25
2023-02-13T06:14:17.694Z,9.77
2023-02-13T06:16:45.737Z,16.88
2023-02-13T06:19:13.744Z,9.77
2023-02-13T06:21:41.923Z,12.02
2023-02-13T06:24:11.177Z,7.95
2023-02-13T06:26:39.130Z,22.40
2023-02-13T06:29:07.026Z,13.90
2023-02-13T06:31:35.114Z,16.80
2023-02-13T06:34:03.227Z,14.38
2023-02-13T06:36:31.584Z,12.50
2023-02-13T06:38:59.589Z,9.60
2023-02-13T06:41:29.386Z,10.40
2023-02-13T06:43:57.304Z,10.88
2023-02-13T06:46:25.169Z,11.18
2023-02-13T06:48:52.976Z,9.27
2023-02-13T06:51:20.784Z,9.32
2023-02-13T06:53:48.540Z,8.73
2023-02-13T06:56:16.364Z,9.32
2023-02-13T06:58:46.327Z,7.22
2023-02-13T07:01:14.534Z,7.05
2023-02-13T07:03:42.358Z,6.32
2023-02-13T07:06:10.305Z,6.63
2023-02-13T07:08:38.249Z,5.75
2023-02-13T07:11:06.314Z,5.43
2023-02-13T07:13:34.208Z,4.82
2023-02-13T07:16:03.606Z,5.15
2023-02-13T07:18:31.489Z,4.07
2023-02-13T07:20:59.732Z,3.67
2023-02-13T07:23:27.661Z,3.50
2023-02-13T07:25:55.601Z,3.53
2023-02-13T07:28:23.536Z,3.58
2023-02-13T07:30:51.386Z,3.35
2023-02-13T07:33:25.911Z,3.65
2023-02-13T07:35:53.761Z,4.18
2023-02-13T07:38:21.791Z,3.38
2023-02-13T07:40:49.668Z,9.43
2023-02-13T07:43:17.989Z,9.63
2023-02-13T07:45:46.973Z,6.78
2023-02-13T07:48:15.003Z,6.35
2023-02-13T07:50:44.182Z,6.15
2023-02-13T07:53:14.502Z,8.35
2023-02-13T07:58:10.513Z,4.80
2023-02-13T08:00:38.447Z,5.22
2023-02-13T08:03:06.294Z,6.32
2023-02-13T08:05:35.289Z,5.63
2023-02-13T08:08:04.669Z,6.57
2023-02-13T08:10:49.937Z,6.73
2023-02-13T08:13:18.822Z,5.72
2023-02-13T08:15:47.089Z,5.00
2023-02-13T08:18:14.906Z,7.10
2023-02-13T08:20:42.750Z,5.75
2023-02-13T08:23:12.713Z,5.25
2023-02-13T08:25:41.298Z,6.35
2023-02-13T08:28:09.324Z,5.88
2023-02-13T08:30:37.296Z,5.30
2023-02-13T08:33:05.415Z,5.68
2023-02-13T08:35:33.329Z,6.03
2023-02-13T08:38:03.980Z,5.93
2023-02-13T08:40:33.491Z,8.50
2023-02-13T08:43:02.817Z,5.93
2023-02-13T08:45:31.563Z,5.40
2023-02-13T08:48:00.982Z,6.20
2023-02-13T08:50:29.649Z,5.75
2023-02-13T08:52:59.688Z,6.35
2023-02-13T08:55:28.562Z,5.80
2023-02-13T08:58:00.826Z,5.30
2023-02-13T09:00:28.793Z,5.82
2023-02-13T09:02:56.888Z,5.47
2023-02-13T09:05:24.715Z,6.20
2023-02-13T09:07:52.535Z,6.18
2023-02-13T09:10:20.671Z,8.02
2023-02-13T09:12:53.497Z,6.47
2023-02-13T09:15:22.948Z,6.35
2023-02-13T09:17:50.918Z,5.97
2023-02-13T09:20:18.737Z,6.18
2023-02-13T09:22:46.618Z,6.95
2023-02-13T09:25:14.561Z,6.57
2023-02-13T09:27:42.456Z,6.35
2023-02-13T09:30:11.569Z,7.07
2023-02-13T09:32:42.671Z,7.03
2023-02-13T09:35:11.118Z,8.40
2023-02-13T09:37:38.946Z,6.43
2023-02-13T09:40:08.227Z,8.20
2023-02-13T09:42:37.933Z,6.97
2023-02-13T09:45:09.329Z,6.97
2023-02-13T09:47:39.120Z,6.57
2023-02-13T09:50:15.757Z,7.15
2023-02-13T09:52:46.963Z,6.85
2023-02-13T09:55:18.068Z,5.93
2023-02-13T09:57:53.027Z,8.30
2023-02-13T10:00:24.867Z,6.68
2023-02-13T10:03:15.875Z,5.97
2023-02-13T10:05:57.224Z,8.02
2023-02-13T10:08:40.975Z,5.78
2023-02-13T10:11:20.939Z,6.65
2023-02-13T10:14:02.282Z,7.72
2023-02-13T10:16:34.500Z,6.07
2023-02-13T10:19:10.073Z,6.85
2023-02-13T10:21:48.442Z,6.45
2023-02-13T10:24:26.567Z,6.35
2023-02-13T10:26:56.448Z,5.13
2023-02-13T10:29:49.198Z,6.07
2023-02-13T10:32:22.153Z,5.85
2023-02-13T10:34:51.703Z,5.57
2023-02-13T10:37:23.176Z,5.80
2023-02-13T10:39:53.292Z,6.00
2023-02-13T10:42:24.037Z,7.25
2023-02-13T10:45:06.526Z,6.00
2023-02-13T10:47:50.610Z,6.07
2023-02-13T10:50:27.742Z,6.75
2023-02-13T10:53:12.990Z,5.57
2023-02-13T10:56:06.127Z,6.25
2023-02-13T10:58:48.498Z,6.15
2023-02-13T11:01:22.494Z,5.80
2023-02-13T11:04:01.444Z,6.13
2023-02-13T11:06:30.536Z,5.50
2023-02-13T11:08:59.999Z,5.63
2023-02-13T11:11:33.700Z,6.00
2023-02-13T11:17:44.503Z,6.30
2023-02-13T11:20:26.771Z,6.53
2023-02-13T11:22:56.297Z,7.53
2023-02-13T11:25:29.035Z,6.35
2023-02-13T11:28:09.153Z,6.32
2023-02-13T11:30:39.334Z,6.25
2023-02-13T11:35:37.374Z,6.80
2023-02-13T11:38:23.456Z,6.70
2023-02-13T11:41:04.841Z,6.13
2023-02-13T11:43:36.972Z,6.03
2023-02-13T11:46:07.948Z,6.10
2023-02-13T11:48:36.649Z,5.55
2023-02-13T11:51:05.876Z,5.57
2023-02-13T11:53:39.085Z,5.75
2023-02-13T11:56:13.782Z,6.28
2023-02-13T11:58:42.536Z,5.38
2023-02-13T12:01:29.214Z,6.72
2023-02-13T12:04:07.354Z,6.70
2023-02-13T12:06:40.479Z,6.65
2023-02-13T12:09:15.964Z,6.85
2023-02-13T12:11:48.923Z,6.15
2023-02-13T12:14:21.815Z,7.38
2023-02-13T12:16:54.844Z,6.55
2023-02-13T12:19:27.148Z,6.45
2023-02-13T12:22:10.576Z,7.00
2023-02-13T12:24:56.009Z,6.43
2023-02-13T12:27:34.671Z,6.45
2023-02-13T12:30:31.689Z,6.82
2023-02-13T12:33:16.535Z,6.25
2023-02-13T12:35:55.088Z,6.97
2023-02-13T12:38:38.417Z,6.40
2023-02-13T12:41:17.747Z,6.90
2023-02-13T12:44:17.005Z,6.85
2023-02-13T12:46:56.321Z,6.47
2023-02-13T12:49:46.153Z,6.30
2023-02-13T12:52:34.543Z,6.70
2023-02-13T12:55:19.145Z,5.82
2023-02-13T12:58:02.881Z,5.43
2023-02-13T13:00:44.322Z,6.78
2023-02-13T13:03:30.016Z,6.60
2023-02-13T13:06:19.594Z,6.93
2023-02-13T13:09:18.533Z,6.50
2023-02-13T13:12:00.438Z,6.88
2023-02-13T13:14:38.886Z,7.28
2023-02-13T13:17:17.775Z,7.20
2023-02-13T13:19:54.540Z,7.18
2023-02-13T13:22:27.511Z,6.93
2023-02-13T13:25:05.560Z,7.38
2023-02-13T13:27:37.556Z,6.75
2023-02-13T13:30:15.113Z,8.82
2023-02-13T13:32:47.155Z,7.68
2023-02-13T13:35:16.653Z,6.85
2023-02-13T13:37:49.994Z,7.13
2023-02-13T13:40:32.451Z,6.78
2023-02-13T13:43:06.512Z,7.43
2023-02-13T13:45:43.659Z,6.95
2023-02-13T13:48:28.007Z,6.75
2023-02-13T13:50:57.143Z,7.13
2023-02-13T13:53:25.556Z,7.00
2023-02-13T13:56:06.716Z,7.30
2023-02-13T13:58:41.777Z,7.25
2023-02-13T14:01:29.109Z,6.53
2023-02-13T14:04:00.088Z,6.88
2023-02-13T14:06:30.232Z,6.18
2023-02-13T14:09:06.127Z,6.63
2023-02-13T14:11:43.329Z,7.35
2023-02-13T14:14:52.634Z,6.97
2023-02-13T14:17:52.310Z,7.75
2023-02-13T14:20:34.299Z,7.45
2023-02-13T14:23:15.505Z,6.50
2023-02-13T14:25:43.656Z,6.38
2023-02-13T14:28:23.101Z,6.65
2023-02-13T14:30:54.014Z,6.90
2023-02-13T14:33:27.613Z,7.20
2023-02-13T14:36:06.751Z,6.10
2023-02-13T14:38:36.296Z,7.05
2023-02-13T14:41:06.379Z,7.25
2023-02-13T14:43:38.939Z,8.10
2023-02-13T14:46:29.021Z,6.07
2023-02-13T14:49:01.143Z,6.88
2023-02-13T14:51:35.498Z,6.35
2023-02-13T14:54:09.988Z,6.60
2023-02-13T14:56:40.126Z,6.63
2023-02-13T14:59:15.793Z,7.50
2023-02-13T15:01:51.813Z,9.55
2023-02-13T15:04:27.140Z,7.32
2023-02-13T15:06:58.775Z,6.65
2023-02-13T15:09:33.379Z,6.53
2023-02-13T15:12:01.653Z,10.10
2023-02-13T15:14:34.610Z,7.32
2023-02-13T15:17:13.610Z,7.18
2023-02-13T15:19:46.733Z,7.28
2023-02-13T15:22:22.193Z,7.15
2023-02-13T15:24:50.945Z,7.63
2023-02-13T15:27:23.011Z,6.93
2023-02-13T15:30:00.442Z,7.13
2023-02-13T15:32:32.074Z,7.82
2023-02-13T15:35:00.423Z,6.68
2023-02-13T15:37:31.910Z,9.10
2023-02-13T15:40:17.294Z,16.90
2023-02-13T15:42:46.511Z,7.75
2023-02-13T15:45:17.449Z,7.38
2023-02-13T15:47:46.639Z,6.20
2023-02-13T15:50:20.685Z,7.32
2023-02-13T15:52:50.702Z,7.05
2023-02-13T15:55:25.336Z,8.70
2023-02-13T15:57:56.510Z,9.32
2023-02-13T16:00:27.924Z,7.63
2023-02-13T16:02:59.173Z,7.80
2023-02-13T16:05:41.376Z,7.30
2023-02-13T16:08:29.402Z,8.07
2023-02-13T16:11:18.825Z,10.07
2023-02-13T16:13:58.392Z,10.67
2023-02-13T16:16:26.982Z,14.13
2023-02-13T16:18:55.159Z,17.48
2023-02-13T16:21:24.579Z,11.13
2023-02-13T16:23:58.550Z,10.77
2023-02-13T16:26:26.779Z,10.40
2023-02-13T16:28:55.968Z,13.00
2023-02-13T16:31:24.164Z,10.30
2023-02-13T16:33:52.093Z,12.32
2023-02-13T16:36:29.064Z,13.52
2023-02-13T16:38:58.403Z,14.50
2023-02-13T16:41:34.519Z,17.17
2023-02-13T16:44:03.552Z,16.23
2023-02-13T16:46:36.354Z,18.95
2023-02-13T16:49:29.660Z,20.40
2023-02-13T16:52:18.824Z,18.77
2023-02-13T16:54:57.247Z,18.50
2023-02-13T16:57:30.301Z,18.63
2023-02-13T17:00:03.879Z,18.83
2023-02-13T17:02:34.309Z,25.95
2023-02-13T17:05:18.068Z,17.27
2023-02-13T17:07:48.286Z,19.52
2023-02-13T17:12:49.510Z,24.75
2023-02-13T17:15:19.267Z,40.72
2023-02-13T17:17:47.823Z,30.95
2023-02-13T17:20:18.382Z,13.80
2023-02-13T17:22:48.210Z,15.93
2023-02-13T17:25:20.725Z,15.50
2023-02-13T17:27:50.783Z,20.73
2023-02-13T17:30:20.852Z,17.48
2023-02-13T17:32:50.176Z,16.48
2023-02-13T17:35:18.466Z,18.85
2023-02-13T17:37:46.376Z,13.85
2023-02-13T17:40:18.859Z,14.82
2023-02-13T17:42:53.897Z,14.95
2023-02-13T17:45:24.887Z,14.10
2023-02-13T17:47:53.154Z,19.00
2023-02-13T17:50:22.224Z,16.33
2023-02-13T17:52:50.180Z,17.13
2023-02-13T17:55:21.397Z,16.15
2023-02-13T17:57:51.109Z,16.40
2023-02-13T18:00:21.114Z,13.57
2023-02-13T18:02:50.203Z,17.73
2023-02-13T18:05:19.990Z,18.38
2023-02-13T18:07:48.419Z,17.23
2023-02-13T18:10:18.662Z,15.38
2023-02-13T18:12:48.599Z,15.05
2023-02-13T18:15:17.996Z,13.85
2023-02-13T18:17:45.973Z,14.77
2023-02-13T18:20:17.338Z,16.75
2023-02-13T18:22:45.597Z,16.38
2023-02-13T18:25:14.578Z,17.73
2023-02-13T18:27:42.682Z,14.07
2023-02-13T18:30:12.774Z,15.77
2023-02-13T18:32:42.141Z,14.60
2023-02-13T18:35:11.260Z,14.97
2023-02-13T18:37:39.385Z,13.38
2023-02-13T18:40:08.838Z,15.40
2023-02-13T18:42:36.965Z,17.00
2023-02-13T18:45:05.207Z,13.50
2023-02-13T18:47:33.134Z,16.52
2023-02-13T18:50:02.940Z,14.93
2023-02-13T18:52:30.785Z,14.43
2023-02-13T18:54:58.682Z,14.30
2023-02-13T18:57:26.487Z,16.80
2023-02-13T18:59:54.460Z,14.57
2023-02-13T19:02:22.376Z,14.63
2023-02-13T19:04:50.264Z,13.90
2023-02-13T19:07:19.516Z,13.52
2023-02-13T19:09:48.557Z,13.65
2023-02-13T19:12:19.588Z,11.73
2023-02-13T19:14:48.199Z,12.02
2023-02-13T19:17:16.151Z,13.00
2023-02-13T19:19:46.242Z,14.32
2023-02-13T19:22:14.235Z,15.45
2023-02-13T19:24:43.598Z,30.13
2023-02-13T19:27:11.687Z,28.25
2023-02-13T19:29:39.569Z,24.05
2023-02-13T19:32:07.526Z,20.40
2023-02-13T19:34:35.524Z,19.02
2023-02-13T19:37:04.822Z,20.77
2023-02-13T19:39:32.642Z,24.30
2023-02-13T19:42:01.963Z,29.23
2023-02-13T19:44:29.864Z,23.67
2023-02-13T19:46:57.707Z,24.25
2023-02-13T19:49:25.611Z,24.45
2023-02-13T19:51:53.492Z,20.23
2023-02-13T19:54:21.460Z,18.67
2023-02-13T19:56:49.425Z,17.48
2023-02-13T19:59:18.701Z,16.60
2023-02-13T20:01:47.204Z,16.10
2023-02-13T20:04:15.082Z,18.77
2023-02-13T20:06:43.144Z,15.88
2023-02-13T20:09:12.866Z,17.30
2023-02-13T20:11:41.667Z,16.73
2023-02-13T20:14:14.295Z,17.10
2023-02-13T20:16:46.561Z,16.83
2023-02-13T20:19:15.123Z,19.52
2023-02-13T20:21:44.040Z,20.80
2023-02-13T20:24:13.796Z,23.02
2023-02-13T20:26:42.006Z,20.50
2023-02-13T20:29:10.318Z,20.20
2023-02-13T20:31:41.135Z,28.42
2023-02-13T20:34:11.169Z,23.63
2023-02-13T20:36:39.259Z,23.55
2023-02-13T20:39:08.735Z,22.80
2023-02-13T20:41:38.596Z,22.92
2023-02-13T20:44:08.266Z,22.27
2023-02-13T20:46:39.192Z,22.67
2023-02-13T20:49:11.392Z,20.88
2023-02-13T20:51:39.663Z,21.73
2023-02-13T20:54:07.601Z,21.13
2023-02-13T20:56:35.608Z,20.48
2023-02-13T20:59:05.254Z,19.85
2023-02-13T21:01:35.600Z,27.75
2023-02-13T21:04:04.250Z,25.00
2023-02-13T21:06:36.128Z,21.65
2023-02-13T21:09:05.738Z,22.65
2023-02-13T21:11:34.980Z,20.40
2023-02-13T21:14:03.371Z,19.75
2023-02-13T21:16:34.008Z,19.33
2023-02-13T21:19:05.240Z,20.75
2023-02-13T21:21:36.435Z,20.55
2023-02-13T21:24:08.550Z,20.40
2023-02-13T21:26:37.427Z,22.58
2023-02-13T21:29:06.253Z,26.65
2023-02-13T21:31:35.914Z,25.27
2023-02-13T21:34:05.994Z,21.70
2023-02-13T21:36:36.994Z,22.67
2023-02-13T21:39:05.896Z,21.65
2023-02-13T21:41:34.069Z,22.80
2023-02-13T21:44:01.974Z,22.60
2023-02-13T21:46:31.956Z,22.38
2023-02-13T21:49:01.244Z,23.40
2023-02-13T21:51:31.489Z,22.33
2023-02-13T21:56:31.369Z,21.20
2023-02-13T22:01:30.209Z,21.88
2023-02-13T22:04:01.170Z,26.23
2023-02-13T22:06:30.226Z,24.90
2023-02-13T22:09:00.918Z,24.00
2023-02-13T22:11:29.308Z,22.45
2023-02-13T22:14:00.077Z,22.52
2023-02-13T22:16:28.236Z,20.63
2023-02-13T22:18:56.286Z,20.98
2023-02-13T22:21:26.294Z,25.55
2023-02-13T22:23:54.616Z,26.13
2023-02-13T22:26:26.249Z,35.25
2023-02-13T22:28:55.308Z,32.03
2023-02-13T22:31:25.804Z,58.53
2023-02-13T22:34:03.395Z,78.45
2023-02-13T22:36:31.908Z,75.63
2023-02-13T22:38:59.737Z,74.10
2023-02-13T22:41:29.276Z,74.63
2023-02-13T22:43:57.904Z,69.32
2023-02-13T22:46:28.506Z,84.45
2023-02-13T22:48:57.448Z,79.57
2023-02-13T22:51:27.943Z,72.25
2023-02-13T22:53:56.737Z,68.18
2023-02-13T22:56:25.851Z,97.25
2023-02-13T22:58:55.138Z,94.55
2023-02-13T23:01:25.449Z,84.70
2023-02-13T23:03:54.029Z,87.45
2023-02-13T23:06:22.800Z,84.57
2023-02-13T23:08:53.285Z,87.70
2023-02-13T23:11:41.116Z,64.63
2023-02-13T23:14:11.122Z,78.80
2023-02-13T23:16:57.464Z,77.78
2023-02-13T23:19:27.373Z,53.00
2023-02-13T23:21:55.416Z,45.53
2023-02-13T23:24:23.242Z,50.42
2023-02-13T23:26:51.261Z,60.95
2023-02-13T23:29:20.659Z,44.00
2023-02-13T23:31:48.696Z,53.53
2023-02-13T23:34:16.827Z,50.47
2023-02-13T23:36:44.685Z,66.47
2023-02-13T23:39:12.468Z,48.65
2023-02-13T23:41:40.435Z,55.75
2023-02-13T23:44:08.380Z,43.03
2023-02-13T23:46:37.758Z,36.90
2023-02-13T23:49:07.493Z,43.63
2023-02-13T23:51:35.889Z,30.60
2023-02-13T23:54:04.998Z,37.53
2023-02-13T23:56:32.901Z,28.73
2023-02-13T23:59:00.778Z,30.88
